createdAt,value
2018-03-26T00:00:52.806Z,0.00
2018-03-26T00:01:52.918Z,0.00
2018-03-26T00:02:52.764Z,0.00
2018-03-26T00:03:53.729Z,0.00
2018-03-26T00:04:53.433Z,0.00
2018-03-26T00:05:52.770Z,0.00
2018-03-26T00:06:52.671Z,0.00
2018-03-26T00:07:52.716Z,0.00
2018-03-26T00:08:52.665Z,0.00
2018-03-26T00:09:52.599Z,0.00
2018-03-26T00:10:52.577Z,0.00
2018-03-26T00:11:52.555Z,0.00
2018-03-26T00:12:52.537Z,0.00
2018-03-26T00:13:52.513Z,0.00
2018-03-26T00:14:52.488Z,0.00
2018-03-26T00:15:52.462Z,0.00
2018-03-26T00:16:52.442Z,0.00
2018-03-26T00:17:52.417Z,0.00
2018-03-26T00:18:52.393Z,0.00
2018-03-26T00:19:52.372Z,0.00
2018-03-26T00:20:52.348Z,0.00
2018-03-26T00:21:52.332Z,0.00
2018-03-26T00:22:52.301Z,0.00
2018-03-26T00:23:52.287Z,0.00
2018-03-26T00:24:52.256Z,0.00
2018-03-26T00:25:52.265Z,0.00
2018-03-26T00:26:52.211Z,0.00
2018-03-26T00:27:52.185Z,0.00
2018-03-26T00:28:52.165Z,0.00
2018-03-26T00:29:52.141Z,0.00
2018-03-26T00:30:52.115Z,0.00
2018-03-26T00:31:52.095Z,0.00
2018-03-26T00:32:52.072Z,0.00
2018-03-26T00:33:52.048Z,0.00
2018-03-26T00:34:52.081Z,0.00
2018-03-26T00:35:52.002Z,0.00
2018-03-26T00:36:51.983Z,0.00
2018-03-26T00:37:51.954Z,0.00
2018-03-26T00:38:51.930Z,0.00
2018-03-26T00:39:51.914Z,0.00
2018-03-26T00:40:51.885Z,0.00
2018-03-26T00:41:51.864Z,0.00
2018-03-26T00:42:51.840Z,0.00
2018-03-26T00:43:51.819Z,0.00
2018-03-26T00:44:51.792Z,0.00
2018-03-26T00:45:51.776Z,0.00
2018-03-26T00:46:51.748Z,0.00
2018-03-26T00:47:51.732Z,0.00
2018-03-26T00:48:51.698Z,0.00
2018-03-26T00:49:51.681Z,0.00
2018-03-26T00:50:51.656Z,0.00
2018-03-26T00:51:51.630Z,0.00
2018-03-26T00:52:51.607Z,0.00
2018-03-26T00:53:51.586Z,0.00
2018-03-26T00:54:51.617Z,0.00
2018-03-26T00:55:51.540Z,0.00
2018-03-26T00:56:51.514Z,0.00
2018-03-26T00:57:51.493Z,0.00
2018-03-26T00:58:51.478Z,0.00
2018-03-26T00:59:51.444Z,0.00
2018-03-26T01:00:51.422Z,0.00
2018-03-26T01:01:51.397Z,0.00
2018-03-26T01:02:51.377Z,0.00
2018-03-26T01:03:51.354Z,0.00
2018-03-26T01:04:51.327Z,0.00
2018-03-26T01:05:51.360Z,0.00
2018-03-26T01:06:51.312Z,0.00
2018-03-26T01:07:51.264Z,0.00
2018-03-26T01:08:51.247Z,0.00
2018-03-26T01:09:51.212Z,0.00
2018-03-26T01:10:51.257Z,0.00
2018-03-26T01:11:51.169Z,0.00
2018-03-26T01:12:51.437Z,0.00
2018-03-26T01:13:51.145Z,0.00
2018-03-26T01:14:51.298Z,0.00
2018-03-26T01:15:51.074Z,0.00
2018-03-26T01:16:51.052Z,0.00
2018-03-26T01:17:51.027Z,0.00
2018-03-26T01:18:51.018Z,0.00
2018-03-26T01:19:51.000Z,0.00
2018-03-26T01:20:50.956Z,0.00
2018-03-26T01:21:50.935Z,0.00
2018-03-26T01:22:50.909Z,0.00
2018-03-26T01:23:50.886Z,0.00
2018-03-26T01:24:51.713Z,0.00
2018-03-26T01:25:50.841Z,0.00
2018-03-26T01:26:50.815Z,0.00
2018-03-26T01:27:53.482Z,0.00
2018-03-26T01:28:50.769Z,0.00
2018-03-26T01:29:50.745Z,0.00
2018-03-26T01:30:50.724Z,0.00
2018-03-26T01:31:50.698Z,0.00
2018-03-26T01:32:50.674Z,0.00
2018-03-26T01:33:50.650Z,0.00
2018-03-26T01:34:50.630Z,0.00
2018-03-26T01:35:50.605Z,0.00
2018-03-26T01:36:50.581Z,0.00
2018-03-26T01:37:50.560Z,0.00
2018-03-26T01:38:50.540Z,0.00
2018-03-26T01:39:50.620Z,0.00
2018-03-26T01:40:50.510Z,0.00
2018-03-26T01:41:50.469Z,0.00
2018-03-26T01:42:50.440Z,0.00
2018-03-26T01:43:50.417Z,0.00
2018-03-26T01:44:50.399Z,0.00
2018-03-26T01:45:50.369Z,0.00
2018-03-26T01:46:50.351Z,0.00
2018-03-26T01:47:50.327Z,0.00
2018-03-26T01:48:50.301Z,0.00
2018-03-26T01:49:50.277Z,0.00
2018-03-26T01:50:50.257Z,0.00
2018-03-26T01:51:50.702Z,0.00
2018-03-26T01:52:50.212Z,0.00
2018-03-26T01:53:50.185Z,0.00
2018-03-26T01:54:50.158Z,0.00
2018-03-26T01:55:50.138Z,0.00
2018-03-26T01:56:50.112Z,0.00
2018-03-26T01:57:50.088Z,0.00
2018-03-26T01:58:50.073Z,0.00
2018-03-26T01:59:50.049Z,0.00
2018-03-26T02:00:50.030Z,0.00
2018-03-26T02:01:50.005Z,0.00
2018-03-26T02:02:49.972Z,0.00
2018-03-26T02:03:49.949Z,0.00
2018-03-26T02:04:49.924Z,0.00
2018-03-26T02:05:49.900Z,0.00
2018-03-26T02:06:49.876Z,0.00
2018-03-26T02:07:49.856Z,0.00
2018-03-26T02:08:49.829Z,0.00
2018-03-26T02:09:49.807Z,0.00
2018-03-26T02:10:49.894Z,0.00
2018-03-26T02:11:49.761Z,0.00
2018-03-26T02:12:49.740Z,0.00
2018-03-26T02:13:49.722Z,0.00
2018-03-26T02:14:49.711Z,0.00
2018-03-26T02:15:49.664Z,0.00
2018-03-26T02:16:49.639Z,0.00
2018-03-26T02:17:49.617Z,0.00
2018-03-26T02:18:49.595Z,0.00
2018-03-26T02:19:49.571Z,0.00
2018-03-26T02:20:49.544Z,0.00
2018-03-26T02:21:49.522Z,0.00
2018-03-26T02:22:49.498Z,0.00
2018-03-26T02:23:49.481Z,0.00
2018-03-26T02:24:49.453Z,0.00
2018-03-26T02:25:49.428Z,0.00
2018-03-26T02:26:49.408Z,0.00
2018-03-26T02:27:49.389Z,0.00
2018-03-26T02:28:49.358Z,0.00
2018-03-26T02:29:49.335Z,0.00
2018-03-26T02:30:49.311Z,0.00
2018-03-26T02:31:49.286Z,0.00
2018-03-26T02:32:49.270Z,0.00
2018-03-26T02:33:49.239Z,0.00
2018-03-26T02:34:49.226Z,0.00
2018-03-26T02:35:49.200Z,0.00
2018-03-26T02:36:49.171Z,0.00
2018-03-26T02:37:49.145Z,0.00
2018-03-26T02:38:49.120Z,0.00
2018-03-26T02:39:49.145Z,0.00
2018-03-26T02:40:49.083Z,0.00
2018-03-26T02:41:49.077Z,0.00
2018-03-26T02:42:49.033Z,0.00
2018-03-26T02:43:49.001Z,0.00
2018-03-26T02:44:48.977Z,0.00
2018-03-26T02:45:48.959Z,0.00
2018-03-26T02:46:49.025Z,0.00
2018-03-26T02:47:48.904Z,0.00
2018-03-26T02:48:48.922Z,0.00
2018-03-26T02:49:48.863Z,0.00
2018-03-26T02:50:48.888Z,0.00
2018-03-26T02:51:48.812Z,0.00
2018-03-26T02:52:48.790Z,0.00
2018-03-26T02:53:48.766Z,0.00
2018-03-26T02:54:48.742Z,0.00
2018-03-26T02:55:48.717Z,0.00
2018-03-26T02:56:48.691Z,0.00
2018-03-26T02:57:48.671Z,0.00
2018-03-26T02:58:48.653Z,0.00
2018-03-26T02:59:48.622Z,0.00
2018-03-26T03:00:48.599Z,0.00
2018-03-26T03:01:48.573Z,0.00
2018-03-26T03:02:48.560Z,0.00
2018-03-26T03:03:48.526Z,0.00
2018-03-26T03:04:48.501Z,0.00
2018-03-26T03:05:48.480Z,0.00
2018-03-26T03:06:48.473Z,0.00
2018-03-26T03:07:48.435Z,0.00
2018-03-26T03:08:48.407Z,0.00
2018-03-26T03:09:48.391Z,0.00
2018-03-26T03:10:48.359Z,0.00
2018-03-26T03:11:48.469Z,0.00
2018-03-26T03:12:48.312Z,0.00
2018-03-26T03:13:48.288Z,0.00
2018-03-26T03:14:48.264Z,0.00
2018-03-26T03:15:48.290Z,0.00
2018-03-26T03:16:48.218Z,0.00
2018-03-26T03:17:48.200Z,0.00
2018-03-26T03:18:48.167Z,0.00
2018-03-26T03:19:48.178Z,0.00
2018-03-26T03:20:48.121Z,0.00
2018-03-26T03:21:48.098Z,0.00
2018-03-26T03:22:48.082Z,0.00
2018-03-26T03:23:48.669Z,0.00
2018-03-26T03:24:48.028Z,0.00
2018-03-26T03:25:48.003Z,0.00
2018-03-26T03:26:47.980Z,0.00
2018-03-26T03:27:47.954Z,0.00
2018-03-26T03:28:47.933Z,0.00
2018-03-26T03:29:47.914Z,0.00
2018-03-26T03:30:47.898Z,0.00
2018-03-26T03:31:47.860Z,0.00
2018-03-26T03:32:47.839Z,0.00
2018-03-26T03:33:47.816Z,0.00
2018-03-26T03:34:47.790Z,0.00
2018-03-26T03:35:47.764Z,0.00
2018-03-26T03:36:47.750Z,0.00
2018-03-26T03:37:47.719Z,0.00
2018-03-26T03:38:47.690Z,0.00
2018-03-26T03:39:47.680Z,0.00
2018-03-26T03:40:47.656Z,0.00
2018-03-26T03:41:47.621Z,0.00
2018-03-26T03:42:47.614Z,0.00
2018-03-26T03:43:47.620Z,0.00
2018-03-26T03:44:47.548Z,0.00
2018-03-26T03:45:47.524Z,0.00
2018-03-26T03:46:47.511Z,0.00
2018-03-26T03:47:50.020Z,0.00
2018-03-26T03:48:47.465Z,0.00
2018-03-26T03:49:47.435Z,0.00
2018-03-26T03:50:47.419Z,0.00
2018-03-26T03:51:49.041Z,0.00
2018-03-26T03:52:47.365Z,0.00
2018-03-26T03:53:47.334Z,0.00
2018-03-26T03:54:47.320Z,0.00
2018-03-26T03:55:47.291Z,0.00
2018-03-26T03:56:47.261Z,0.00
2018-03-26T03:57:47.252Z,0.00
2018-03-26T03:58:47.225Z,0.00
2018-03-26T03:59:49.033Z,0.00
2018-03-26T04:00:47.190Z,0.00
2018-03-26T04:01:47.142Z,0.00
2018-03-26T04:02:47.119Z,0.00
2018-03-26T04:03:47.102Z,0.00
2018-03-26T04:04:47.068Z,0.00
2018-03-26T04:05:47.055Z,0.00
2018-03-26T04:06:47.019Z,0.00
2018-03-26T04:07:46.995Z,0.00
2018-03-26T04:08:46.975Z,0.00
2018-03-26T04:09:46.950Z,0.00
2018-03-26T04:10:46.931Z,0.00
2018-03-26T04:11:46.899Z,0.00
2018-03-26T04:12:46.877Z,0.00
2018-03-26T04:13:46.853Z,0.00
2018-03-26T04:14:46.831Z,0.00
2018-03-26T04:15:46.811Z,0.00
2018-03-26T04:16:46.797Z,0.00
2018-03-26T04:17:46.756Z,0.00
2018-03-26T04:18:46.735Z,0.00
2018-03-26T04:19:46.710Z,0.00
2018-03-26T04:20:46.684Z,0.00
2018-03-26T04:21:46.662Z,0.00
2018-03-26T04:22:46.637Z,0.00
2018-03-26T04:23:46.611Z,0.00
2018-03-26T04:24:46.648Z,0.00
2018-03-26T04:25:46.571Z,0.00
2018-03-26T04:26:46.540Z,0.00
2018-03-26T04:27:46.514Z,0.00
2018-03-26T04:28:46.493Z,0.00
2018-03-26T04:29:46.468Z,0.00
2018-03-26T04:30:46.445Z,0.00
2018-03-26T04:31:46.420Z,0.00
2018-03-26T04:32:46.395Z,0.00
2018-03-26T04:33:46.369Z,0.00
2018-03-26T04:34:46.345Z,0.00
2018-03-26T04:35:46.322Z,0.00
2018-03-26T04:36:46.299Z,0.00
2018-03-26T04:37:46.274Z,0.00
2018-03-26T04:38:46.265Z,0.00
2018-03-26T04:39:46.323Z,0.00
2018-03-26T04:40:46.202Z,0.00
2018-03-26T04:41:46.195Z,0.00
2018-03-26T04:42:46.151Z,0.00
2018-03-26T04:43:46.127Z,0.00
2018-03-26T04:44:46.108Z,0.00
2018-03-26T04:45:46.081Z,0.00
2018-03-26T04:46:46.055Z,0.00
2018-03-26T04:47:46.032Z,0.00
2018-03-26T04:48:46.011Z,0.00
2018-03-26T04:49:45.984Z,0.00
2018-03-26T04:50:45.959Z,0.00
2018-03-26T04:51:45.937Z,0.00
2018-03-26T04:52:45.912Z,0.00
2018-03-26T04:53:45.890Z,0.00
2018-03-26T04:54:45.861Z,0.00
2018-03-26T04:55:46.660Z,0.00
2018-03-26T04:56:45.815Z,0.00
2018-03-26T04:57:45.789Z,4.00
2018-03-26T04:58:45.786Z,0.00
2018-03-26T04:59:45.743Z,0.00
2018-03-26T05:00:45.717Z,4.00
2018-03-26T05:01:45.744Z,4.00
2018-03-26T05:02:45.668Z,0.00
2018-03-26T05:03:45.647Z,4.00
2018-03-26T05:04:45.654Z,0.00
2018-03-26T05:05:45.596Z,4.00
2018-03-26T05:06:45.574Z,4.00
2018-03-26T05:07:45.547Z,8.00
2018-03-26T05:08:45.596Z,8.00
2018-03-26T05:09:45.502Z,8.00
2018-03-26T05:10:45.477Z,8.00
2018-03-26T05:11:45.451Z,12.00
2018-03-26T05:12:45.499Z,12.00
2018-03-26T05:13:45.445Z,12.00
2018-03-26T05:14:45.377Z,16.00
2018-03-26T05:15:45.354Z,16.00
2018-03-26T05:16:45.357Z,16.00
2018-03-26T05:17:45.369Z,20.00
2018-03-26T05:18:45.318Z,24.00
2018-03-26T05:19:45.278Z,24.00
2018-03-26T05:20:45.294Z,24.00
2018-03-26T05:21:45.208Z,28.00
2018-03-26T05:22:45.256Z,28.00
2018-03-26T05:23:45.176Z,32.00
2018-03-26T05:24:45.222Z,36.00
2018-03-26T05:25:45.175Z,40.00
2018-03-26T05:26:45.086Z,44.00
2018-03-26T05:27:45.087Z,48.00
2018-03-26T05:28:45.049Z,52.00
2018-03-26T05:29:45.011Z,56.00
2018-03-26T05:30:44.984Z,60.00
2018-03-26T05:31:44.961Z,64.00
2018-03-26T05:32:44.937Z,68.00
2018-03-26T05:33:44.916Z,76.00
2018-03-26T05:34:44.897Z,80.00
2018-03-26T05:35:44.863Z,84.00
2018-03-26T05:36:44.848Z,92.00
2018-03-26T05:37:44.817Z,92.00
2018-03-26T05:38:44.793Z,96.00
2018-03-26T05:39:44.770Z,100.00
2018-03-26T05:40:44.744Z,108.00
2018-03-26T05:41:44.739Z,116.00
2018-03-26T05:42:44.698Z,120.00
2018-03-26T05:43:44.669Z,128.00
2018-03-26T05:44:44.697Z,128.00
2018-03-26T05:45:44.620Z,132.00
2018-03-26T05:46:44.597Z,132.00
2018-03-26T05:47:44.575Z,136.00
2018-03-26T05:48:44.603Z,136.00
2018-03-26T05:49:44.523Z,144.00
2018-03-26T05:50:44.501Z,144.00
2018-03-26T05:51:44.487Z,152.00
2018-03-26T05:52:46.104Z,156.00
2018-03-26T05:53:44.467Z,164.00
2018-03-26T05:54:44.409Z,168.00
2018-03-26T05:55:45.200Z,176.00
2018-03-26T05:56:44.352Z,184.00
2018-03-26T05:57:44.329Z,192.00
2018-03-26T05:58:44.308Z,192.00
2018-03-26T05:59:44.278Z,208.00
2018-03-26T06:00:44.257Z,228.00
2018-03-26T06:01:44.231Z,252.00
2018-03-26T06:02:44.218Z,272.00
2018-03-26T06:03:44.180Z,276.00
2018-03-26T06:04:44.156Z,284.00
2018-03-26T06:05:44.131Z,292.00
2018-03-26T06:06:44.108Z,292.00
2018-03-26T06:07:44.084Z,284.00
2018-03-26T06:08:44.063Z,284.00
2018-03-26T06:09:44.061Z,288.00
2018-03-26T06:10:44.050Z,304.00
2018-03-26T06:11:43.985Z,328.00
2018-03-26T06:12:43.966Z,348.00
2018-03-26T06:13:43.939Z,360.00
2018-03-26T06:14:43.911Z,372.00
2018-03-26T06:15:43.892Z,384.00
2018-03-26T06:16:43.862Z,388.00
2018-03-26T06:17:43.838Z,392.00
2018-03-26T06:18:43.813Z,384.00
2018-03-26T06:19:43.789Z,372.00
2018-03-26T06:20:43.766Z,364.00
2018-03-26T06:21:43.739Z,368.00
2018-03-26T06:22:43.720Z,376.00
2018-03-26T06:23:43.691Z,388.00
2018-03-26T06:24:43.726Z,400.00
2018-03-26T06:25:44.023Z,424.00
2018-03-26T06:26:43.621Z,444.00
2018-03-26T06:27:43.594Z,456.00
2018-03-26T06:28:43.568Z,464.00
2018-03-26T06:29:43.549Z,468.00
2018-03-26T06:30:43.549Z,472.00
2018-03-26T06:31:43.494Z,492.00
2018-03-26T06:32:43.481Z,504.00
2018-03-26T06:33:43.446Z,516.00
2018-03-26T06:34:43.426Z,532.00
2018-03-26T06:35:43.394Z,552.00
2018-03-26T06:36:43.372Z,564.00
2018-03-26T06:37:43.384Z,560.00
2018-03-26T06:38:43.322Z,568.00
2018-03-26T06:39:43.300Z,576.00
2018-03-26T06:40:43.283Z,600.00
2018-03-26T06:41:43.250Z,624.00
2018-03-26T06:42:43.224Z,660.00
2018-03-26T06:43:43.198Z,676.00
2018-03-26T06:44:43.177Z,664.00
2018-03-26T06:45:43.157Z,672.00
2018-03-26T06:46:43.141Z,672.00
2018-03-26T06:47:43.104Z,660.00
2018-03-26T06:48:43.112Z,636.00
2018-03-26T06:49:43.055Z,628.00
2018-03-26T06:50:43.050Z,620.00
2018-03-26T06:51:43.031Z,604.00
2018-03-26T06:52:42.979Z,588.00
2018-03-26T06:53:42.956Z,572.00
2018-03-26T06:54:42.928Z,556.00
2018-03-26T06:55:42.907Z,556.00
2018-03-26T06:56:42.915Z,552.00
2018-03-26T06:57:42.857Z,564.00
2018-03-26T06:58:42.832Z,576.00
2018-03-26T06:59:42.821Z,580.00
2018-03-26T07:00:42.788Z,592.00
2018-03-26T07:01:42.768Z,656.00
2018-03-26T07:02:42.735Z,656.00
2018-03-26T07:03:42.710Z,676.00
2018-03-26T07:04:42.689Z,636.00
2018-03-26T07:05:42.663Z,636.00
2018-03-26T07:06:42.647Z,652.00
2018-03-26T07:07:42.714Z,652.00
2018-03-26T07:08:42.589Z,656.00
2018-03-26T07:09:42.564Z,600.00
2018-03-26T07:10:42.541Z,592.00
2018-03-26T07:11:42.518Z,644.00
2018-03-26T07:12:42.495Z,708.00
2018-03-26T07:13:42.471Z,708.00
2018-03-26T07:14:42.444Z,700.00
2018-03-26T07:15:42.416Z,696.00
2018-03-26T07:16:42.396Z,732.00
2018-03-26T07:17:42.366Z,712.00
2018-03-26T07:18:42.370Z,716.00
2018-03-26T07:19:42.326Z,732.00
2018-03-26T07:20:42.292Z,728.00
2018-03-26T07:21:42.299Z,736.00
2018-03-26T07:22:42.244Z,744.00
2018-03-26T07:23:42.224Z,744.00
2018-03-26T07:24:42.208Z,744.00
2018-03-26T07:25:42.178Z,760.00
2018-03-26T07:26:42.145Z,788.00
2018-03-26T07:27:42.177Z,800.00
2018-03-26T07:28:42.155Z,808.00
2018-03-26T07:29:42.090Z,828.00
2018-03-26T07:30:42.105Z,840.00
2018-03-26T07:31:42.034Z,844.00
2018-03-26T07:32:42.018Z,844.00
2018-03-26T07:33:41.985Z,856.00
2018-03-26T07:34:41.987Z,848.00
2018-03-26T07:35:41.927Z,844.00
2018-03-26T07:36:41.902Z,832.00
2018-03-26T07:37:41.920Z,832.00
2018-03-26T07:38:41.851Z,828.00
2018-03-26T07:39:41.842Z,832.00
2018-03-26T07:40:41.806Z,824.00
2018-03-26T07:41:41.778Z,904.00
2018-03-26T07:42:41.752Z,856.00
2018-03-26T07:43:41.729Z,828.00
2018-03-26T07:44:41.704Z,832.00
2018-03-26T07:45:41.687Z,844.00
2018-03-26T07:46:41.657Z,872.00
2018-03-26T07:47:41.631Z,948.00
2018-03-26T07:48:41.617Z,900.00
2018-03-26T07:49:41.584Z,976.00
2018-03-26T07:50:41.556Z,944.00
2018-03-26T07:51:41.533Z,1108.00
2018-03-26T07:52:41.512Z,1156.00
2018-03-26T07:53:41.483Z,1188.00
2018-03-26T07:54:41.463Z,1204.00
2018-03-26T07:55:41.436Z,1096.00
2018-03-26T07:56:41.438Z,1304.00
2018-03-26T07:57:41.989Z,1660.00
2018-03-26T07:58:41.368Z,1656.00
2018-03-26T07:59:41.337Z,1752.00
2018-03-26T08:00:41.322Z,1636.00
2018-03-26T08:01:41.289Z,1516.00
2018-03-26T08:02:41.265Z,1744.00
2018-03-26T08:03:41.243Z,1580.00
2018-03-26T08:04:41.216Z,1680.00
2018-03-26T08:05:41.192Z,1544.00
2018-03-26T08:06:41.165Z,1564.00
2018-03-26T08:07:41.257Z,1876.00
2018-03-26T08:08:41.119Z,1632.00
2018-03-26T08:09:41.179Z,1608.00
2018-03-26T08:10:41.074Z,1936.00
2018-03-26T08:11:41.048Z,1940.00
2018-03-26T08:12:41.023Z,1804.00
2018-03-26T08:13:40.997Z,1836.00
2018-03-26T08:14:40.993Z,1940.00
2018-03-26T08:15:40.954Z,2276.00
2018-03-26T08:16:40.926Z,1852.00
2018-03-26T08:17:40.901Z,2028.00
2018-03-26T08:18:40.885Z,1944.00
2018-03-26T08:19:40.854Z,1868.00
2018-03-26T08:20:40.838Z,1932.00
2018-03-26T08:21:40.811Z,2192.00
2018-03-26T08:22:40.782Z,1740.00
2018-03-26T08:23:40.760Z,1772.00
2018-03-26T08:24:40.742Z,1936.00
2018-03-26T08:25:40.714Z,1696.00
2018-03-26T08:26:40.698Z,2344.00
2018-03-26T08:27:40.668Z,2332.00
2018-03-26T08:28:40.644Z,1688.00
2018-03-26T08:29:40.624Z,1568.00
2018-03-26T08:30:40.593Z,1576.00
2018-03-26T08:31:40.572Z,2004.00
2018-03-26T08:32:40.584Z,2296.00
2018-03-26T08:33:40.524Z,2584.00
2018-03-26T08:34:40.537Z,2780.00
2018-03-26T08:35:40.525Z,2344.00
2018-03-26T08:36:40.452Z,2204.00
2018-03-26T08:37:40.452Z,2224.00
2018-03-26T08:38:40.403Z,1968.00
2018-03-26T08:39:40.385Z,1924.00
2018-03-26T08:40:40.430Z,2232.00
2018-03-26T08:41:40.395Z,2264.00
2018-03-26T08:42:40.310Z,2152.00
2018-03-26T08:43:40.289Z,2228.00
2018-03-26T08:44:40.306Z,1916.00
2018-03-26T08:45:40.241Z,1656.00
2018-03-26T08:46:40.221Z,1960.00
2018-03-26T08:47:40.197Z,2332.00
2018-03-26T08:48:40.174Z,2232.00
2018-03-26T08:49:40.455Z,2052.00
2018-03-26T08:50:40.125Z,2104.00
2018-03-26T08:51:40.105Z,2176.00
2018-03-26T08:52:40.080Z,1988.00
2018-03-26T08:53:40.066Z,1864.00
2018-03-26T08:54:40.032Z,1912.00
2018-03-26T08:55:40.100Z,2328.00
2018-03-26T08:56:39.987Z,2088.00
2018-03-26T08:57:40.495Z,2572.00
2018-03-26T08:58:39.941Z,2120.00
2018-03-26T08:59:39.915Z,1816.00
2018-03-26T09:00:39.889Z,1604.00
2018-03-26T09:01:39.874Z,1768.00
2018-03-26T09:02:39.849Z,1212.00
2018-03-26T09:03:39.821Z,1444.00
2018-03-26T09:04:39.798Z,1500.00
2018-03-26T09:05:39.832Z,1628.00
2018-03-26T09:06:39.751Z,1628.00
2018-03-26T09:07:39.731Z,1504.00
2018-03-26T09:08:39.705Z,1520.00
2018-03-26T09:09:39.682Z,1272.00
2018-03-26T09:10:39.659Z,1656.00
2018-03-26T09:11:39.633Z,1548.00
2018-03-26T09:12:39.673Z,1460.00
2018-03-26T09:13:39.589Z,1484.00
2018-03-26T09:14:39.597Z,1508.00
2018-03-26T09:15:39.543Z,1644.00
2018-03-26T09:16:39.527Z,1508.00
2018-03-26T09:17:39.493Z,1576.00
2018-03-26T09:18:39.501Z,1660.00
2018-03-26T09:19:39.471Z,1580.00
2018-03-26T09:20:39.423Z,1612.00
2018-03-26T09:21:39.407Z,1756.00
2018-03-26T09:22:39.433Z,1716.00
2018-03-26T09:23:39.355Z,1600.00
2018-03-26T09:24:39.329Z,1636.00
2018-03-26T09:25:39.313Z,1628.00
2018-03-26T09:26:39.282Z,1580.00
2018-03-26T09:27:39.262Z,1576.00
2018-03-26T09:28:39.237Z,1616.00
2018-03-26T09:29:39.214Z,1656.00
2018-03-26T09:30:39.192Z,1604.00
2018-03-26T09:31:39.169Z,1652.00
2018-03-26T09:32:39.142Z,1676.00
2018-03-26T09:33:39.117Z,1712.00
2018-03-26T09:34:39.099Z,1788.00
2018-03-26T09:35:39.072Z,1740.00
2018-03-26T09:36:39.049Z,1764.00
2018-03-26T09:37:39.028Z,1772.00
2018-03-26T09:38:39.093Z,1804.00
2018-03-26T09:39:38.978Z,1848.00
2018-03-26T09:40:38.979Z,1912.00
2018-03-26T09:41:38.932Z,1960.00
2018-03-26T09:42:38.909Z,2132.00
2018-03-26T09:43:38.889Z,2216.00
2018-03-26T09:44:38.861Z,2312.00
2018-03-26T09:45:38.839Z,2308.00
2018-03-26T09:46:38.821Z,2512.00
2018-03-26T09:47:38.843Z,2636.00
2018-03-26T09:48:38.826Z,2700.00
2018-03-26T09:49:38.789Z,2800.00
2018-03-26T09:50:38.747Z,2860.00
2018-03-26T09:51:38.710Z,2976.00
2018-03-26T09:52:38.698Z,3024.00
2018-03-26T09:53:38.653Z,3160.00
2018-03-26T09:54:38.692Z,3196.00
2018-03-26T09:55:38.636Z,3292.00
2018-03-26T09:56:38.608Z,3368.00
2018-03-26T09:57:38.574Z,3140.00
2018-03-26T09:58:38.539Z,3512.00
2018-03-26T09:59:38.514Z,3288.00
2018-03-26T10:00:38.506Z,3380.00
2018-03-26T10:01:38.480Z,4036.00
2018-03-26T10:02:38.511Z,3288.00
2018-03-26T10:03:38.419Z,3320.00
2018-03-26T10:04:38.397Z,3432.00
2018-03-26T10:05:38.381Z,3468.00
2018-03-26T10:06:38.393Z,3424.00
2018-03-26T10:07:38.376Z,3792.00
2018-03-26T10:08:38.328Z,3656.00
2018-03-26T10:09:38.300Z,3800.00
2018-03-26T10:10:38.293Z,4128.00
2018-03-26T10:11:38.236Z,4068.00
2018-03-26T10:12:38.217Z,4340.00
2018-03-26T10:13:38.191Z,4964.00
2018-03-26T10:14:38.179Z,5324.00
2018-03-26T10:15:38.150Z,5844.00
2018-03-26T10:16:38.127Z,6760.00
2018-03-26T10:17:38.164Z,7028.00
2018-03-26T10:18:38.083Z,7560.00
2018-03-26T10:19:38.081Z,8096.00
2018-03-26T10:20:38.036Z,9292.00
2018-03-26T10:21:38.056Z,10024.00
2018-03-26T10:22:38.693Z,11168.00
2018-03-26T10:23:37.972Z,11392.00
2018-03-26T10:24:37.986Z,11792.00
2018-03-26T10:25:37.928Z,12804.00
2018-03-26T10:26:38.595Z,8380.00
2018-03-26T10:27:39.641Z,9408.00
2018-03-26T10:28:37.870Z,11316.00
2018-03-26T10:29:37.842Z,11304.00
2018-03-26T10:30:38.179Z,14944.00
2018-03-26T10:31:37.801Z,14336.00
2018-03-26T10:32:37.779Z,16224.00
2018-03-26T10:33:37.802Z,16928.00
2018-03-26T10:34:37.745Z,14528.00
2018-03-26T10:35:37.724Z,16192.00
2018-03-26T10:36:37.706Z,19072.00
2018-03-26T10:37:37.717Z,18912.00
2018-03-26T10:38:37.669Z,17216.00
2018-03-26T10:39:37.653Z,16608.00
2018-03-26T10:40:37.639Z,16320.00
2018-03-26T10:41:40.126Z,16320.00
2018-03-26T10:42:38.606Z,17440.00
2018-03-26T10:43:39.139Z,18304.00
2018-03-26T10:44:37.570Z,17472.00
2018-03-26T10:45:37.553Z,18112.00
2018-03-26T10:46:37.580Z,18272.00
2018-03-26T10:47:37.598Z,18144.00
2018-03-26T10:48:38.441Z,18560.00
2018-03-26T10:49:37.548Z,19200.00
2018-03-26T10:50:37.544Z,17760.00
2018-03-26T10:51:37.561Z,15040.00
2018-03-26T10:52:37.471Z,13904.00
2018-03-26T10:53:37.452Z,15072.00
2018-03-26T10:54:37.424Z,15104.00
2018-03-26T10:55:37.424Z,14624.00
2018-03-26T10:56:39.141Z,12272.00
2018-03-26T10:57:37.397Z,13064.00
2018-03-26T10:58:37.390Z,16480.00
2018-03-26T10:59:37.367Z,17376.00
2018-03-26T11:00:37.350Z,16832.00
2018-03-26T11:01:37.345Z,13892.00
2018-03-26T11:02:37.338Z,16000.00
2018-03-26T11:03:37.313Z,16800.00
2018-03-26T11:04:37.303Z,15072.00
2018-03-26T11:05:37.298Z,15744.00
2018-03-26T11:06:37.277Z,15200.00
2018-03-26T11:07:37.266Z,15104.00
2018-03-26T11:08:37.295Z,17024.00
2018-03-26T11:09:37.243Z,16864.00
2018-03-26T11:10:37.228Z,15840.00
2018-03-26T11:11:37.234Z,16864.00
2018-03-26T11:12:37.209Z,16960.00
2018-03-26T11:13:37.246Z,18592.00
2018-03-26T11:14:37.201Z,16416.00
2018-03-26T11:15:37.180Z,19584.00
2018-03-26T11:16:37.163Z,19008.00
2018-03-26T11:17:37.149Z,20128.00
2018-03-26T11:18:37.139Z,19776.00
2018-03-26T11:19:37.126Z,18560.00
2018-03-26T11:20:37.115Z,17984.00
2018-03-26T11:21:37.111Z,18848.00
2018-03-26T11:22:37.169Z,18784.00
2018-03-26T11:23:37.084Z,17984.00
2018-03-26T11:24:37.476Z,18336.00
2018-03-26T11:25:37.069Z,18304.00
2018-03-26T11:26:37.130Z,20032.00
2018-03-26T11:27:37.045Z,18496.00
2018-03-26T11:28:37.036Z,17920.00
2018-03-26T11:29:37.027Z,19648.00
2018-03-26T11:30:37.021Z,19648.00
2018-03-26T11:31:37.004Z,17248.00
2018-03-26T11:32:36.999Z,16096.00
2018-03-26T11:33:37.007Z,16544.00
2018-03-26T11:34:36.974Z,17600.00
2018-03-26T11:35:36.999Z,19456.00
2018-03-26T11:36:36.958Z,21120.00
2018-03-26T11:37:36.949Z,21664.00
2018-03-26T11:38:36.939Z,21312.00
2018-03-26T11:39:36.936Z,22464.00
2018-03-26T11:40:36.921Z,22752.00
2018-03-26T11:41:36.910Z,23296.00
2018-03-26T11:42:36.969Z,21888.00
2018-03-26T11:43:36.893Z,21088.00
2018-03-26T11:44:36.886Z,20768.00
2018-03-26T11:45:36.879Z,21152.00
2018-03-26T11:46:36.868Z,21600.00
2018-03-26T11:47:36.860Z,21472.00
2018-03-26T11:48:36.851Z,21856.00
2018-03-26T11:49:36.898Z,22976.00
2018-03-26T11:50:36.838Z,23232.00
2018-03-26T11:51:36.831Z,20896.00
2018-03-26T11:52:36.837Z,20800.00
2018-03-26T11:53:36.815Z,7988.00
2018-03-26T11:54:36.835Z,4772.00
2018-03-26T11:55:36.820Z,23392.00
2018-03-26T11:56:36.858Z,22144.00
2018-03-26T11:57:37.331Z,22112.00
2018-03-26T11:58:36.780Z,23296.00
2018-03-26T11:59:36.771Z,8172.00
2018-03-26T12:00:36.804Z,24064.00
2018-03-26T12:01:36.753Z,23328.00
2018-03-26T12:02:36.746Z,22912.00
2018-03-26T12:03:36.740Z,23488.00
2018-03-26T12:04:36.736Z,23680.00
2018-03-26T12:05:36.723Z,21184.00
2018-03-26T12:06:36.721Z,22112.00
2018-03-26T12:07:36.710Z,21792.00
2018-03-26T12:08:36.703Z,23072.00
2018-03-26T12:09:36.696Z,24160.00
2018-03-26T12:10:36.699Z,22944.00
2018-03-26T12:11:36.684Z,24128.00
2018-03-26T12:12:36.675Z,24800.00
2018-03-26T12:13:36.683Z,27072.00
2018-03-26T12:14:36.682Z,16832.00
2018-03-26T12:15:36.702Z,27168.00
2018-03-26T12:16:36.651Z,26912.00
2018-03-26T12:17:36.653Z,26496.00
2018-03-26T12:18:36.641Z,26176.00
2018-03-26T12:19:36.638Z,27104.00
2018-03-26T12:20:36.644Z,27616.00
2018-03-26T12:21:36.634Z,29696.00
2018-03-26T12:22:36.624Z,19936.00
2018-03-26T12:23:36.620Z,26624.00
2018-03-26T12:24:36.642Z,22528.00
2018-03-26T12:25:36.611Z,22784.00
2018-03-26T12:26:36.609Z,23520.00
2018-03-26T12:27:36.615Z,23616.00
2018-03-26T12:28:36.600Z,23552.00
2018-03-26T12:29:36.598Z,23584.00
2018-03-26T12:30:36.599Z,22464.00
2018-03-26T12:31:36.591Z,19392.00
2018-03-26T12:32:36.591Z,20544.00
2018-03-26T12:33:36.582Z,18240.00
2018-03-26T12:34:36.577Z,17920.00
2018-03-26T12:35:36.573Z,13992.00